sensor_id;sensor_type;location;lat;lon;timestamp;P1;durP1;ratioP1;P2;durP2;ratioP2
25435;SDS011;13363;52.772;-3.890;2022-11-20T00:01:51;0.33;;;0.33;;
25435;SDS011;13363;52.772;-3.890;2022-11-20T00:04:17;0.20;;;0.20;;
25435;SDS011;13363;52.772;-3.890;2022-11-20T00:10:11;0.30;;;0.30;;
25435;SDS011;13363;52.772;-3.890;2022-11-20T00:12:36;0.33;;;0.33;;
25435;SDS011;13363;52.772;-3.890;2022-11-20T00:15:03;0.30;;;0.30;;
25435;SDS011;13363;52.772;-3.890;2022-11-20T00:17:29;0.20;;;0.20;;
25435;SDS011;13363;52.772;-3.890;2022-11-20T00:19:55;0.30;;;0.30;;
25435;SDS011;13363;52.772;-3.890;2022-11-20T00:22:21;0.30;;;0.30;;
25435;SDS011;13363;52.772;-3.890;2022-11-20T00:24:46;0.40;;;0.40;;
25435;SDS011;13363;52.772;-3.890;2022-11-20T00:27:12;0.23;;;0.23;;
25435;SDS011;13363;52.772;-3.890;2022-11-20T00:29:38;0.40;;;0.40;;
25435;SDS011;13363;52.772;-3.890;2022-11-20T00:32:04;0.50;;;0.50;;
25435;SDS011;13363;52.772;-3.890;2022-11-20T00:34:29;0.20;;;0.20;;
25435;SDS011;13363;52.772;-3.890;2022-11-20T00:36:55;0.30;;;0.30;;
25435;SDS011;13363;52.772;-3.890;2022-11-20T00:39:21;0.93;;;0.50;;
25435;SDS011;13363;52.772;-3.890;2022-11-20T00:41:47;0.40;;;0.40;;
25435;SDS011;13363;52.772;-3.890;2022-11-20T00:44:13;0.30;;;0.30;;
25435;SDS011;13363;52.772;-3.890;2022-11-20T00:46:38;0.73;;;0.50;;
25435;SDS011;13363;52.772;-3.890;2022-11-20T00:49:04;0.27;;;0.27;;
25435;SDS011;13363;52.772;-3.890;2022-11-20T00:51:30;0.10;;;0.10;;
25435;SDS011;13363;52.772;-3.890;2022-11-20T00:53:56;0.20;;;0.20;;
25435;SDS011;13363;52.772;-3.890;2022-11-20T00:56:24;0.20;;;0.20;;
25435;SDS011;13363;52.772;-3.890;2022-11-20T00:58:50;0.40;;;0.40;;
25435;SDS011;13363;52.772;-3.890;2022-11-20T01:01:17;0.40;;;0.40;;
25435;SDS011;13363;52.772;-3.890;2022-11-20T01:03:49;0.30;;;0.30;;
25435;SDS011;13363;52.772;-3.890;2022-11-20T01:06:23;0.40;;;0.40;;
25435;SDS011;13363;52.772;-3.890;2022-11-20T01:09:04;0.30;;;0.30;;
25435;SDS011;13363;52.772;-3.890;2022-11-20T01:11:32;0.60;;;0.60;;
25435;SDS011;13363;52.772;-3.890;2022-11-20T01:14:00;0.30;;;0.30;;
25435;SDS011;13363;52.772;-3.890;2022-11-20T01:16:28;0.27;;;0.20;;
25435;SDS011;13363;52.772;-3.890;2022-11-20T01:19:15;1.60;;;0.40;;
25435;SDS011;13363;52.772;-3.890;2022-11-20T01:21:44;0.40;;;0.40;;
25435;SDS011;13363;52.772;-3.890;2022-11-20T01:24:14;1.40;;;0.43;;
25435;SDS011;13363;52.772;-3.890;2022-11-20T01:26:41;3.43;;;0.53;;
25435;SDS011;13363;52.772;-3.890;2022-11-20T01:29:21;0.40;;;0.30;;
25435;SDS011;13363;52.772;-3.890;2022-11-20T01:31:49;0.40;;;0.40;;
25435;SDS011;13363;52.772;-3.890;2022-11-20T01:34:17;0.27;;;0.27;;
25435;SDS011;13363;52.772;-3.890;2022-11-20T01:36:44;0.50;;;0.50;;
25435;SDS011;13363;52.772;-3.890;2022-11-20T01:39:12;1.33;;;0.40;;
25435;SDS011;13363;52.772;-3.890;2022-11-20T01:41:43;0.50;;;0.50;;
25435;SDS011;13363;52.772;-3.890;2022-11-20T01:47:14;0.40;;;0.40;;
25435;SDS011;13363;52.772;-3.890;2022-11-20T01:52:58;1.77;;;0.50;;
25435;SDS011;13363;52.772;-3.890;2022-11-20T01:55:31;0.70;;;0.50;;
25435;SDS011;13363;52.772;-3.890;2022-11-20T01:58:03;1.70;;;0.50;;
25435;SDS011;13363;52.772;-3.890;2022-11-20T02:00:29;0.63;;;0.50;;
25435;SDS011;13363;52.772;-3.890;2022-11-20T02:03:09;0.67;;;0.40;;
25435;SDS011;13363;52.772;-3.890;2022-11-20T02:05:42;0.60;;;0.60;;
25435;SDS011;13363;52.772;-3.890;2022-11-20T02:08:37;0.20;;;0.20;;
25435;SDS011;13363;52.772;-3.890;2022-11-20T02:11:04;0.73;;;0.50;;
25435;SDS011;13363;52.772;-3.890;2022-11-20T02:13:30;0.77;;;0.50;;
25435;SDS011;13363;52.772;-3.890;2022-11-20T02:16:12;0.50;;;0.50;;
25435;SDS011;13363;52.772;-3.890;2022-11-20T02:18:40;0.80;;;0.50;;
25435;SDS011;13363;52.772;-3.890;2022-11-20T02:24:07;1.37;;;0.70;;
25435;SDS011;13363;52.772;-3.890;2022-11-20T02:26:35;0.53;;;0.50;;
25435;SDS011;13363;52.772;-3.890;2022-11-20T02:29:06;0.50;;;0.40;;
25435;SDS011;13363;52.772;-3.890;2022-11-20T02:31:40;1.23;;;0.60;;
25435;SDS011;13363;52.772;-3.890;2022-11-20T02:34:07;0.43;;;0.43;;
25435;SDS011;13363;52.772;-3.890;2022-11-20T02:36:34;0.47;;;0.47;;
25435;SDS011;13363;52.772;-3.890;2022-11-20T02:39:02;1.60;;;0.50;;
25435;SDS011;13363;52.772;-3.890;2022-11-20T02:41:36;0.40;;;0.40;;
25435;SDS011;13363;52.772;-3.890;2022-11-20T02:44:03;0.87;;;0.40;;
25435;SDS011;13363;52.772;-3.890;2022-11-20T02:46:30;1.20;;;0.53;;
25435;SDS011;13363;52.772;-3.890;2022-11-20T02:48:56;0.87;;;0.87;;
25435;SDS011;13363;52.772;-3.890;2022-11-20T02:51:22;1.63;;;0.60;;
25435;SDS011;13363;52.772;-3.890;2022-11-20T02:53:48;0.60;;;0.53;;
25435;SDS011;13363;52.772;-3.890;2022-11-20T02:56:14;2.10;;;0.53;;
25435;SDS011;13363;52.772;-3.890;2022-11-20T02:58:40;0.60;;;0.60;;
25435;SDS011;13363;52.772;-3.890;2022-11-20T03:01:06;1.97;;;0.60;;
25435;SDS011;13363;52.772;-3.890;2022-11-20T03:03:32;3.17;;;0.73;;
25435;SDS011;13363;52.772;-3.890;2022-11-20T03:05:58;1.20;;;0.50;;
25435;SDS011;13363;52.772;-3.890;2022-11-20T03:08:24;1.33;;;0.43;;
25435;SDS011;13363;52.772;-3.890;2022-11-20T03:10:51;1.73;;;1.00;;
25435;SDS011;13363;52.772;-3.890;2022-11-20T03:13:17;3.50;;;0.77;;
25435;SDS011;13363;52.772;-3.890;2022-11-20T03:15:43;3.13;;;1.27;;
25435;SDS011;13363;52.772;-3.890;2022-11-20T03:18:09;2.40;;;0.90;;
25435;SDS011;13363;52.772;-3.890;2022-11-20T03:20:35;8.57;;;1.20;;
25435;SDS011;13363;52.772;-3.890;2022-11-20T03:23:01;5.13;;;1.60;;
25435;SDS011;13363;52.772;-3.890;2022-11-20T03:25:27;10.97;;;1.97;;
25435;SDS011;13363;52.772;-3.890;2022-11-20T03:27:53;9.93;;;1.90;;
25435;SDS011;13363;52.772;-3.890;2022-11-20T03:30:19;8.37;;;2.23;;
25435;SDS011;13363;52.772;-3.890;2022-11-20T03:32:45;4.83;;;1.60;;
25435;SDS011;13363;52.772;-3.890;2022-11-20T03:35:11;6.20;;;2.33;;
25435;SDS011;13363;52.772;-3.890;2022-11-20T03:37:37;8.00;;;2.87;;
25435;SDS011;13363;52.772;-3.890;2022-11-20T03:40:03;13.50;;;2.73;;
25435;SDS011;13363;52.772;-3.890;2022-11-20T03:42:29;10.90;;;2.83;;
25435;SDS011;13363;52.772;-3.890;2022-11-20T03:45:10;11.80;;;2.13;;
25435;SDS011;13363;52.772;-3.890;2022-11-20T03:47:37;15.90;;;3.50;;
25435;SDS011;13363;52.772;-3.890;2022-11-20T03:50:03;11.93;;;3.03;;
25435;SDS011;13363;52.772;-3.890;2022-11-20T03:52:29;15.63;;;2.67;;
25435;SDS011;13363;52.772;-3.890;2022-11-20T03:54:55;11.40;;;3.00;;
25435;SDS011;13363;52.772;-3.890;2022-11-20T03:57:21;11.97;;;3.37;;
25435;SDS011;13363;52.772;-3.890;2022-11-20T03:59:47;15.07;;;2.93;;
25435;SDS011;13363;52.772;-3.890;2022-11-20T04:02:13;8.43;;;2.57;;
25435;SDS011;13363;52.772;-3.890;2022-11-20T04:04:38;16.23;;;3.70;;
25435;SDS011;13363;52.772;-3.890;2022-11-20T04:07:04;17.60;;;3.17;;
25435;SDS011;13363;52.772;-3.890;2022-11-20T04:09:30;17.73;;;3.77;;
25435;SDS011;13363;52.772;-3.890;2022-11-20T04:11:56;17.20;;;3.40;;
25435;SDS011;13363;52.772;-3.890;2022-11-20T04:14:21;21.70;;;3.20;;
25435;SDS011;13363;52.772;-3.890;2022-11-20T04:16:47;12.13;;;3.07;;
25435;SDS011;13363;52.772;-3.890;2022-11-20T04:19:14;15.67;;;3.40;;
25435;SDS011;13363;52.772;-3.890;2022-11-20T04:21:43;11.10;;;2.87;;
25435;SDS011;13363;52.772;-3.890;2022-11-20T04:24:09;20.87;;;3.93;;
25435;SDS011;13363;52.772;-3.890;2022-11-20T04:26:35;10.60;;;3.27;;
25435;SDS011;13363;52.772;-3.890;2022-11-20T04:29:02;11.23;;;3.10;;
25435;SDS011;13363;52.772;-3.890;2022-11-20T04:31:29;14.43;;;2.93;;
25435;SDS011;13363;52.772;-3.890;2022-11-20T04:34:01;20.03;;;3.90;;
25435;SDS011;13363;52.772;-3.890;2022-11-20T04:36:28;17.77;;;3.83;;
25435;SDS011;13363;52.772;-3.890;2022-11-20T04:38:58;14.27;;;4.17;;
25435;SDS011;13363;52.772;-3.890;2022-11-20T04:41:27;14.20;;;3.53;;
25435;SDS011;13363;52.772;-3.890;2022-11-20T04:43:55;17.93;;;4.10;;
25435;SDS011;13363;52.772;-3.890;2022-11-20T04:46:24;12.60;;;2.87;;
25435;SDS011;13363;52.772;-3.890;2022-11-20T04:48:51;34.53;;;4.77;;
25435;SDS011;13363;52.772;-3.890;2022-11-20T04:51:17;19.90;;;3.70;;
25435;SDS011;13363;52.772;-3.890;2022-11-20T04:53:43;10.90;;;2.80;;
25435;SDS011;13363;52.772;-3.890;2022-11-20T04:56:09;14.73;;;3.50;;
25435;SDS011;13363;52.772;-3.890;2022-11-20T04:58:37;16.33;;;3.90;;
25435;SDS011;13363;52.772;-3.890;2022-11-20T05:01:04;14.07;;;3.63;;
25435;SDS011;13363;52.772;-3.890;2022-11-20T05:03:41;13.90;;;2.70;;
25435;SDS011;13363;52.772;-3.890;2022-11-20T05:06:08;20.53;;;3.93;;
25435;SDS011;13363;52.772;-3.890;2022-11-20T05:08:35;19.57;;;3.50;;
25435;SDS011;13363;52.772;-3.890;2022-11-20T05:11:02;13.60;;;3.20;;
25435;SDS011;13363;52.772;-3.890;2022-11-20T05:13:32;10.17;;;3.33;;
25435;SDS011;13363;52.772;-3.890;2022-11-20T05:16:17;13.67;;;3.60;;
25435;SDS011;13363;52.772;-3.890;2022-11-20T05:18:44;11.10;;;3.47;;
25435;SDS011;13363;52.772;-3.890;2022-11-20T05:21:10;15.83;;;3.30;;
25435;SDS011;13363;52.772;-3.890;2022-11-20T05:23:37;20.13;;;4.10;;
25435;SDS011;13363;52.772;-3.890;2022-11-20T05:26:03;18.57;;;3.80;;
25435;SDS011;13363;52.772;-3.890;2022-11-20T05:28:31;10.03;;;3.17;;
25435;SDS011;13363;52.772;-3.890;2022-11-20T05:31:07;22.33;;;3.60;;
25435;SDS011;13363;52.772;-3.890;2022-11-20T05:33:35;17.90;;;3.87;;
25435;SDS011;13363;52.772;-3.890;2022-11-20T05:36:01;13.03;;;3.03;;
25435;SDS011;13363;52.772;-3.890;2022-11-20T05:38:28;11.40;;;3.67;;
25435;SDS011;13363;52.772;-3.890;2022-11-20T05:40:54;21.20;;;3.83;;
25435;SDS011;13363;52.772;-3.890;2022-11-20T05:43:27;19.87;;;3.87;;
25435;SDS011;13363;52.772;-3.890;2022-11-20T05:45:53;29.67;;;4.13;;
25435;SDS011;13363;52.772;-3.890;2022-11-20T05:48:19;16.67;;;3.80;;
25435;SDS011;13363;52.772;-3.890;2022-11-20T05:50:45;15.87;;;4.37;;
25435;SDS011;13363;52.772;-3.890;2022-11-20T05:53:12;23.43;;;4.13;;
25435;SDS011;13363;52.772;-3.890;2022-11-20T05:55:38;24.90;;;3.93;;
25435;SDS011;13363;52.772;-3.890;2022-11-20T05:58:04;22.17;;;4.20;;
25435;SDS011;13363;52.772;-3.890;2022-11-20T06:00:30;19.97;;;3.90;;
25435;SDS011;13363;52.772;-3.890;2022-11-20T06:02:55;22.57;;;4.30;;
25435;SDS011;13363;52.772;-3.890;2022-11-20T06:05:21;22.50;;;3.80;;
25435;SDS011;13363;52.772;-3.890;2022-11-20T06:07:47;22.73;;;4.43;;
25435;SDS011;13363;52.772;-3.890;2022-11-20T06:10:13;16.53;;;3.73;;
25435;SDS011;13363;52.772;-3.890;2022-11-20T06:12:39;28.93;;;5.03;;
25435;SDS011;13363;52.772;-3.890;2022-11-20T06:15:05;13.17;;;3.57;;
25435;SDS011;13363;52.772;-3.890;2022-11-20T06:17:31;22.73;;;4.17;;
25435;SDS011;13363;52.772;-3.890;2022-11-20T06:19:57;21.87;;;3.50;;
25435;SDS011;13363;52.772;-3.890;2022-11-20T06:22:23;14.07;;;3.50;;
25435;SDS011;13363;52.772;-3.890;2022-11-20T06:24:48;18.83;;;3.60;;
25435;SDS011;13363;52.772;-3.890;2022-11-20T06:27:15;15.33;;;3.07;;
25435;SDS011;13363;52.772;-3.890;2022-11-20T06:29:41;14.00;;;3.50;;
25435;SDS011;13363;52.772;-3.890;2022-11-20T06:32:07;13.63;;;3.97;;
25435;SDS011;13363;52.772;-3.890;2022-11-20T06:34:32;19.23;;;4.13;;
25435;SDS011;13363;52.772;-3.890;2022-11-20T06:36:58;14.87;;;3.40;;
25435;SDS011;13363;52.772;-3.890;2022-11-20T06:39:24;16.37;;;3.10;;
25435;SDS011;13363;52.772;-3.890;2022-11-20T06:41:50;19.77;;;3.93;;
25435;SDS011;13363;52.772;-3.890;2022-11-20T06:44:15;12.03;;;3.23;;
25435;SDS011;13363;52.772;-3.890;2022-11-20T06:46:41;17.60;;;3.10;;
25435;SDS011;13363;52.772;-3.890;2022-11-20T06:49:07;20.33;;;3.47;;
25435;SDS011;13363;52.772;-3.890;2022-11-20T06:51:33;15.43;;;3.00;;
25435;SDS011;13363;52.772;-3.890;2022-11-20T06:53:59;11.10;;;3.37;;
25435;SDS011;13363;52.772;-3.890;2022-11-20T06:56:26;15.20;;;4.30;;
25435;SDS011;13363;52.772;-3.890;2022-11-20T06:58:52;18.20;;;3.37;;
25435;SDS011;13363;52.772;-3.890;2022-11-20T07:01:17;19.40;;;4.53;;
25435;SDS011;13363;52.772;-3.890;2022-11-20T07:03:43;15.57;;;3.13;;
25435;SDS011;13363;52.772;-3.890;2022-11-20T07:06:09;12.37;;;2.97;;
25435;SDS011;13363;52.772;-3.890;2022-11-20T07:08:35;20.47;;;3.87;;
25435;SDS011;13363;52.772;-3.890;2022-11-20T07:11:05;12.30;;;3.20;;
25435;SDS011;13363;52.772;-3.890;2022-11-20T07:13:32;13.33;;;3.40;;
25435;SDS011;13363;52.772;-3.890;2022-11-20T07:16:02;14.67;;;2.97;;
25435;SDS011;13363;52.772;-3.890;2022-11-20T07:18:30;15.67;;;3.13;;
25435;SDS011;13363;52.772;-3.890;2022-11-20T07:20:59;17.47;;;4.53;;
25435;SDS011;13363;52.772;-3.890;2022-11-20T07:23:26;12.00;;;3.10;;
25435;SDS011;13363;52.772;-3.890;2022-11-20T07:25:52;6.37;;;2.50;;
25435;SDS011;13363;52.772;-3.890;2022-11-20T07:28:18;15.77;;;2.93;;
25435;SDS011;13363;52.772;-3.890;2022-11-20T07:30:48;13.43;;;3.00;;
25435;SDS011;13363;52.772;-3.890;2022-11-20T07:33:17;13.40;;;2.77;;
25435;SDS011;13363;52.772;-3.890;2022-11-20T07:35:42;17.00;;;3.67;;
25435;SDS011;13363;52.772;-3.890;2022-11-20T07:38:08;7.80;;;2.20;;
25435;SDS011;13363;52.772;-3.890;2022-11-20T07:40:34;13.23;;;3.00;;
25435;SDS011;13363;52.772;-3.890;2022-11-20T07:43:00;17.27;;;3.63;;
25435;SDS011;13363;52.772;-3.890;2022-11-20T07:45:25;9.60;;;3.53;;
25435;SDS011;13363;52.772;-3.890;2022-11-20T07:47:51;12.20;;;2.87;;
25435;SDS011;13363;52.772;-3.890;2022-11-20T07:50:17;10.93;;;2.90;;
25435;SDS011;13363;52.772;-3.890;2022-11-20T07:52:44;12.67;;;3.03;;
25435;SDS011;13363;52.772;-3.890;2022-11-20T07:55:10;14.30;;;3.20;;
25435;SDS011;13363;52.772;-3.890;2022-11-20T07:57:36;13.87;;;3.17;;
25435;SDS011;13363;52.772;-3.890;2022-11-20T08:00:03;16.20;;;3.40;;
25435;SDS011;13363;52.772;-3.890;2022-11-20T08:02:30;11.27;;;2.60;;
25435;SDS011;13363;52.772;-3.890;2022-11-20T08:04:56;18.30;;;3.00;;
25435;SDS011;13363;52.772;-3.890;2022-11-20T08:07:22;17.63;;;3.37;;
25435;SDS011;13363;52.772;-3.890;2022-11-20T08:09:47;11.00;;;2.77;;
25435;SDS011;13363;52.772;-3.890;2022-11-20T08:12:20;12.60;;;2.60;;
25435;SDS011;13363;52.772;-3.890;2022-11-20T08:15:05;9.07;;;3.13;;
25435;SDS011;13363;52.772;-3.890;2022-11-20T08:17:32;14.17;;;2.67;;
25435;SDS011;13363;52.772;-3.890;2022-11-20T08:19:57;11.13;;;2.20;;
25435;SDS011;13363;52.772;-3.890;2022-11-20T08:22:23;11.83;;;2.80;;
25435;SDS011;13363;52.772;-3.890;2022-11-20T08:24:50;15.03;;;2.93;;
25435;SDS011;13363;52.772;-3.890;2022-11-20T08:27:16;13.10;;;2.40;;
25435;SDS011;13363;52.772;-3.890;2022-11-20T08:29:42;13.17;;;2.93;;
25435;SDS011;13363;52.772;-3.890;2022-11-20T08:32:07;11.37;;;3.20;;
25435;SDS011;13363;52.772;-3.890;2022-11-20T08:34:33;11.33;;;2.67;;
25435;SDS011;13363;52.772;-3.890;2022-11-20T08:36:59;8.90;;;2.33;;
25435;SDS011;13363;52.772;-3.890;2022-11-20T08:39:27;12.13;;;3.13;;
25435;SDS011;13363;52.772;-3.890;2022-11-20T08:41:52;13.57;;;3.23;;
25435;SDS011;13363;52.772;-3.890;2022-11-20T08:44:18;9.80;;;2.50;;
25435;SDS011;13363;52.772;-3.890;2022-11-20T08:46:44;15.93;;;3.23;;
25435;SDS011;13363;52.772;-3.890;2022-11-20T08:49:11;14.93;;;2.87;;
25435;SDS011;13363;52.772;-3.890;2022-11-20T08:51:38;8.07;;;2.30;;
25435;SDS011;13363;52.772;-3.890;2022-11-20T08:54:04;6.17;;;2.50;;
25435;SDS011;13363;52.772;-3.890;2022-11-20T08:56:31;10.17;;;2.23;;
25435;SDS011;13363;52.772;-3.890;2022-11-20T08:58:58;12.83;;;3.23;;
25435;SDS011;13363;52.772;-3.890;2022-11-20T09:01:26;9.10;;;3.40;;
25435;SDS011;13363;52.772;-3.890;2022-11-20T09:03:56;9.87;;;2.60;;
25435;SDS011;13363;52.772;-3.890;2022-11-20T09:06:24;5.67;;;2.03;;
25435;SDS011;13363;52.772;-3.890;2022-11-20T09:08:54;9.03;;;2.27;;
25435;SDS011;13363;52.772;-3.890;2022-11-20T09:11:20;12.57;;;3.37;;
25435;SDS011;13363;52.772;-3.890;2022-11-20T09:13:46;13.10;;;3.00;;
25435;SDS011;13363;52.772;-3.890;2022-11-20T09:16:12;11.37;;;3.60;;
25435;SDS011;13363;52.772;-3.890;2022-11-20T09:18:37;8.40;;;2.57;;
25435;SDS011;13363;52.772;-3.890;2022-11-20T09:21:10;7.50;;;3.00;;
25435;SDS011;13363;52.772;-3.890;2022-11-20T09:23:37;10.40;;;2.43;;
25435;SDS011;13363;52.772;-3.890;2022-11-20T09:26:04;8.47;;;2.60;;
25435;SDS011;13363;52.772;-3.890;2022-11-20T09:28:37;6.03;;;2.30;;
25435;SDS011;13363;52.772;-3.890;2022-11-20T09:31:25;10.33;;;2.50;;
25435;SDS011;13363;52.772;-3.890;2022-11-20T09:33:51;9.43;;;3.20;;
25435;SDS011;13363;52.772;-3.890;2022-11-20T09:36:17;8.20;;;2.30;;
25435;SDS011;13363;52.772;-3.890;2022-11-20T09:38:44;20.47;;;3.07;;
25435;SDS011;13363;52.772;-3.890;2022-11-20T09:41:19;12.33;;;2.63;;
25435;SDS011;13363;52.772;-3.890;2022-11-20T09:55:10;10.50;;;2.43;;
25435;SDS011;13363;52.772;-3.890;2022-11-20T09:57:39;6.93;;;2.30;;
25435;SDS011;13363;52.772;-3.890;2022-11-20T10:00:12;7.40;;;2.43;;
25435;SDS011;13363;52.772;-3.890;2022-11-20T10:10:35;9.97;;;2.60;;
25435;SDS011;13363;52.772;-3.890;2022-11-20T10:25:04;9.33;;;2.43;;
25435;SDS011;13363;52.772;-3.890;2022-11-20T10:28:05;11.43;;;3.00;;
25435;SDS011;13363;52.772;-3.890;2022-11-20T10:30:40;12.40;;;3.57;;
25435;SDS011;13363;52.772;-3.890;2022-11-20T10:38:35;15.57;;;3.07;;
25435;SDS011;13363;52.772;-3.890;2022-11-20T10:41:15;9.67;;;2.80;;
25435;SDS011;13363;52.772;-3.890;2022-11-20T10:44:04;12.00;;;2.93;;
25435;SDS011;13363;52.772;-3.890;2022-11-20T10:47:16;14.37;;;2.77;;
25435;SDS011;13363;52.772;-3.890;2022-11-20T10:49:44;12.90;;;2.50;;
25435;SDS011;13363;52.772;-3.890;2022-11-20T10:55:32;8.50;;;2.80;;
25435;SDS011;13363;52.772;-3.890;2022-11-20T11:01:11;10.93;;;2.90;;
25435;SDS011;13363;52.772;-3.890;2022-11-20T11:03:41;13.03;;;2.80;;
25435;SDS011;13363;52.772;-3.890;2022-11-20T11:09:02;13.97;;;3.30;;
25435;SDS011;13363;52.772;-3.890;2022-11-20T11:11:35;16.47;;;3.50;;
25435;SDS011;13363;52.772;-3.890;2022-11-20T11:14:06;16.80;;;2.87;;
25435;SDS011;13363;52.772;-3.890;2022-11-20T11:16:34;8.97;;;2.73;;
25435;SDS011;13363;52.772;-3.890;2022-11-20T11:19:07;14.43;;;3.60;;
25435;SDS011;13363;52.772;-3.890;2022-11-20T11:21:38;10.27;;;2.80;;
25435;SDS011;13363;52.772;-3.890;2022-11-20T11:24:24;13.03;;;3.03;;
25435;SDS011;13363;52.772;-3.890;2022-11-20T11:29:24;10.87;;;3.17;;
25435;SDS011;13363;52.772;-3.890;2022-11-20T11:32:04;15.60;;;2.93;;
25435;SDS011;13363;52.772;-3.890;2022-11-20T11:34:36;10.20;;;3.00;;
25435;SDS011;13363;52.772;-3.890;2022-11-20T11:37:02;10.17;;;3.07;;
25435;SDS011;13363;52.772;-3.890;2022-11-20T11:39:30;11.93;;;3.10;;
25435;SDS011;13363;52.772;-3.890;2022-11-20T11:41:58;8.63;;;2.37;;
25435;SDS011;13363;52.772;-3.890;2022-11-20T11:44:33;10.67;;;3.10;;
25435;SDS011;13363;52.772;-3.890;2022-11-20T11:47:26;11.77;;;2.90;;
25435;SDS011;13363;52.772;-3.890;2022-11-20T11:50:07;8.13;;;1.83;;
25435;SDS011;13363;52.772;-3.890;2022-11-20T11:55:43;5.93;;;1.73;;
25435;SDS011;13363;52.772;-3.890;2022-11-20T12:03:39;2.53;;;1.20;;
25435;SDS011;13363;52.772;-3.890;2022-11-20T12:06:14;1.60;;;1.33;;
25435;SDS011;13363;52.772;-3.890;2022-11-20T12:08:49;5.07;;;1.80;;
25435;SDS011;13363;52.772;-3.890;2022-11-20T12:11:39;3.77;;;1.00;;
25435;SDS011;13363;52.772;-3.890;2022-11-20T12:16:52;1.73;;;0.90;;
25435;SDS011;13363;52.772;-3.890;2022-11-20T12:19:20;2.20;;;1.03;;
25435;SDS011;13363;52.772;-3.890;2022-11-20T12:22:06;1.30;;;0.67;;
25435;SDS011;13363;52.772;-3.890;2022-11-20T12:27:53;2.17;;;0.90;;
25435;SDS011;13363;52.772;-3.890;2022-11-20T12:30:41;2.53;;;0.80;;
25435;SDS011;13363;52.772;-3.890;2022-11-20T12:33:58;0.83;;;0.70;;
25435;SDS011;13363;52.772;-3.890;2022-11-20T12:36:32;1.27;;;1.00;;
25435;SDS011;13363;52.772;-3.890;2022-11-20T12:39:33;2.67;;;0.67;;
25435;SDS011;13363;52.772;-3.890;2022-11-20T12:47:58;1.93;;;0.90;;
25435;SDS011;13363;52.772;-3.890;2022-11-20T12:53:58;0.90;;;0.70;;
25435;SDS011;13363;52.772;-3.890;2022-11-20T12:56:53;1.60;;;0.90;;
25435;SDS011;13363;52.772;-3.890;2022-11-20T13:02:33;2.53;;;1.07;;
25435;SDS011;13363;52.772;-3.890;2022-11-20T13:08:14;1.30;;;1.00;;
25435;SDS011;13363;52.772;-3.890;2022-11-20T13:10:55;1.97;;;1.00;;
25435;SDS011;13363;52.772;-3.890;2022-11-20T13:16:11;2.57;;;0.80;;
25435;SDS011;13363;52.772;-3.890;2022-11-20T13:18:48;2.20;;;0.73;;
25435;SDS011;13363;52.772;-3.890;2022-11-20T13:21:18;1.73;;;0.87;;
25435;SDS011;13363;52.772;-3.890;2022-11-20T13:23:46;1.37;;;0.93;;
25435;SDS011;13363;52.772;-3.890;2022-11-20T13:26:20;2.37;;;0.90;;
25435;SDS011;13363;52.772;-3.890;2022-11-20T13:28:59;4.27;;;0.90;;
25435;SDS011;13363;52.772;-3.890;2022-11-20T13:31:36;1.90;;;0.90;;
25435;SDS011;13363;52.772;-3.890;2022-11-20T13:34:11;1.00;;;0.90;;
25435;SDS011;13363;52.772;-3.890;2022-11-20T13:36:51;3.83;;;1.20;;
25435;SDS011;13363;52.772;-3.890;2022-11-20T13:39:28;3.67;;;1.03;;
25435;SDS011;13363;52.772;-3.890;2022-11-20T13:42:00;4.73;;;0.90;;
25435;SDS011;13363;52.772;-3.890;2022-11-20T13:44:38;1.67;;;1.17;;
25435;SDS011;13363;52.772;-3.890;2022-11-20T13:47:24;2.23;;;1.10;;
25435;SDS011;13363;52.772;-3.890;2022-11-20T13:49:52;2.97;;;1.10;;
25435;SDS011;13363;52.772;-3.890;2022-11-20T13:52:30;0.73;;;0.70;;
25435;SDS011;13363;52.772;-3.890;2022-11-20T13:55:16;3.80;;;1.57;;
25435;SDS011;13363;52.772;-3.890;2022-11-20T13:58:21;4.10;;;1.30;;
25435;SDS011;13363;52.772;-3.890;2022-11-20T14:01:16;4.40;;;1.27;;
25435;SDS011;13363;52.772;-3.890;2022-11-20T14:03:46;6.27;;;1.40;;
25435;SDS011;13363;52.772;-3.890;2022-11-20T14:06:23;3.30;;;1.27;;
25435;SDS011;13363;52.772;-3.890;2022-11-20T14:08:55;3.60;;;0.87;;
25435;SDS011;13363;52.772;-3.890;2022-11-20T14:14:02;3.60;;;1.03;;
25435;SDS011;13363;52.772;-3.890;2022-11-20T14:16:38;2.47;;;1.20;;
25435;SDS011;13363;52.772;-3.890;2022-11-20T14:21:46;4.10;;;0.93;;
25435;SDS011;13363;52.772;-3.890;2022-11-20T14:24:13;3.60;;;1.00;;
25435;SDS011;13363;52.772;-3.890;2022-11-20T14:26:44;1.57;;;0.63;;
25435;SDS011;13363;52.772;-3.890;2022-11-20T14:29:33;2.63;;;0.70;;
25435;SDS011;13363;52.772;-3.890;2022-11-20T14:32:02;2.17;;;0.93;;
25435;SDS011;13363;52.772;-3.890;2022-11-20T14:34:32;1.70;;;1.00;;
25435;SDS011;13363;52.772;-3.890;2022-11-20T14:37:04;3.50;;;0.90;;
25435;SDS011;13363;52.772;-3.890;2022-11-20T14:39:36;3.00;;;0.70;;
25435;SDS011;13363;52.772;-3.890;2022-11-20T14:42:14;1.23;;;0.50;;
25435;SDS011;13363;52.772;-3.890;2022-11-20T14:44:52;2.17;;;0.73;;
25435;SDS011;13363;52.772;-3.890;2022-11-20T14:47:21;2.23;;;1.13;;
25435;SDS011;13363;52.772;-3.890;2022-11-20T14:49:52;4.77;;;1.00;;
25435;SDS011;13363;52.772;-3.890;2022-11-20T14:52:21;3.00;;;0.70;;
25435;SDS011;13363;52.772;-3.890;2022-11-20T14:54:48;3.37;;;1.10;;
25435;SDS011;13363;52.772;-3.890;2022-11-20T14:57:23;1.83;;;0.93;;
25435;SDS011;13363;52.772;-3.890;2022-11-20T15:02:44;4.37;;;1.10;;
25435;SDS011;13363;52.772;-3.890;2022-11-20T15:05:12;1.67;;;1.40;;
25435;SDS011;13363;52.772;-3.890;2022-11-20T15:07:40;4.63;;;0.90;;
25435;SDS011;13363;52.772;-3.890;2022-11-20T15:10:11;1.77;;;0.83;;
25435;SDS011;13363;52.772;-3.890;2022-11-20T15:12:50;3.63;;;1.00;;
25435;SDS011;13363;52.772;-3.890;2022-11-20T15:16:02;4.97;;;0.67;;
25435;SDS011;13363;52.772;-3.890;2022-11-20T15:18:09;2.80;;;1.07;;
25435;SDS011;13363;52.772;-3.890;2022-11-20T15:20:38;2.10;;;0.70;;
25435;SDS011;13363;52.772;-3.890;2022-11-20T15:23:15;3.77;;;0.93;;
25435;SDS011;13363;52.772;-3.890;2022-11-20T15:25:54;3.17;;;0.93;;
25435;SDS011;13363;52.772;-3.890;2022-11-20T15:28:29;5.47;;;0.93;;
25435;SDS011;13363;52.772;-3.890;2022-11-20T15:30:57;1.87;;;0.90;;
25435;SDS011;13363;52.772;-3.890;2022-11-20T15:33:23;3.23;;;0.70;;
25435;SDS011;13363;52.772;-3.890;2022-11-20T15:35:50;0.93;;;0.73;;
25435;SDS011;13363;52.772;-3.890;2022-11-20T15:38:15;3.87;;;0.70;;
25435;SDS011;13363;52.772;-3.890;2022-11-20T15:40:41;1.57;;;0.87;;
25435;SDS011;13363;52.772;-3.890;2022-11-20T15:43:07;2.20;;;1.20;;
25435;SDS011;13363;52.772;-3.890;2022-11-20T15:48:05;2.47;;;1.13;;
25435;SDS011;13363;52.772;-3.890;2022-11-20T15:53:22;1.43;;;0.77;;
25435;SDS011;13363;52.772;-3.890;2022-11-20T15:55:48;5.03;;;1.40;;
25435;SDS011;13363;52.772;-3.890;2022-11-20T15:58:14;3.53;;;1.10;;
25435;SDS011;13363;52.772;-3.890;2022-11-20T16:00:42;4.90;;;0.80;;
25435;SDS011;13363;52.772;-3.890;2022-11-20T16:03:11;12.97;;;2.80;;
25435;SDS011;13363;52.772;-3.890;2022-11-20T16:05:38;3.47;;;1.57;;
25435;SDS011;13363;52.772;-3.890;2022-11-20T16:08:04;2.37;;;1.23;;
25435;SDS011;13363;52.772;-3.890;2022-11-20T16:10:30;2.43;;;0.80;;
25435;SDS011;13363;52.772;-3.890;2022-11-20T16:12:56;1.73;;;0.87;;
25435;SDS011;13363;52.772;-3.890;2022-11-20T16:15:40;1.37;;;0.80;;
25435;SDS011;13363;52.772;-3.890;2022-11-20T16:18:19;5.47;;;1.20;;
25435;SDS011;13363;52.772;-3.890;2022-11-20T16:20:47;3.83;;;0.93;;
25435;SDS011;13363;52.772;-3.890;2022-11-20T16:23:14;4.30;;;0.77;;
25435;SDS011;13363;52.772;-3.890;2022-11-20T16:25:41;3.80;;;0.93;;
25435;SDS011;13363;52.772;-3.890;2022-11-20T16:28:08;3.40;;;1.03;;
25435;SDS011;13363;52.772;-3.890;2022-11-20T16:30:34;2.97;;;1.10;;
25435;SDS011;13363;52.772;-3.890;2022-11-20T16:33:00;3.27;;;0.97;;